sensor_id;sensor_type;location;lat;lon;timestamp;P1;durP1;ratioP1;P2;durP2;ratioP2
21036;SDS011;10677;50.942;4.028;2023-04-07T00:00:31;12.50;;;6.72;;
21036;SDS011;10677;50.942;4.028;2023-04-07T00:02:56;15.57;;;7.30;;
21036;SDS011;10677;50.942;4.028;2023-04-07T00:05:22;13.82;;;6.55;;
21036;SDS011;10677;50.942;4.028;2023-04-07T00:07:48;13.02;;;7.28;;
21036;SDS011;10677;50.942;4.028;2023-04-07T00:10:14;11.80;;;6.18;;
21036;SDS011;10677;50.942;4.028;2023-04-07T00:12:39;11.65;;;6.25;;
21036;SDS011;10677;50.942;4.028;2023-04-07T00:15:05;13.27;;;6.70;;
21036;SDS011;10677;50.942;4.028;2023-04-07T00:17:31;15.85;;;6.93;;
21036;SDS011;10677;50.942;4.028;2023-04-07T00:19:57;14.07;;;6.85;;
21036;SDS011;10677;50.942;4.028;2023-04-07T00:22:22;11.63;;;6.18;;
21036;SDS011;10677;50.942;4.028;2023-04-07T00:24:48;13.80;;;5.97;;
21036;SDS011;10677;50.942;4.028;2023-04-07T00:27:14;15.73;;;6.53;;
21036;SDS011;10677;50.942;4.028;2023-04-07T00:29:39;12.27;;;5.95;;
21036;SDS011;10677;50.942;4.028;2023-04-07T00:32:07;16.95;;;6.40;;
21036;SDS011;10677;50.942;4.028;2023-04-07T00:34:33;16.63;;;6.53;;
21036;SDS011;10677;50.942;4.028;2023-04-07T00:36:59;11.93;;;6.53;;
21036;SDS011;10677;50.942;4.028;2023-04-07T00:39:25;12.73;;;5.13;;
21036;SDS011;10677;50.942;4.028;2023-04-07T00:41:51;10.80;;;4.90;;
21036;SDS011;10677;50.942;4.028;2023-04-07T00:44:17;9.52;;;4.20;;
21036;SDS011;10677;50.942;4.028;2023-04-07T00:46:43;8.75;;;4.10;;
21036;SDS011;10677;50.942;4.028;2023-04-07T00:49:09;8.77;;;3.83;;
21036;SDS011;10677;50.942;4.028;2023-04-07T00:51:37;10.35;;;4.07;;
21036;SDS011;10677;50.942;4.028;2023-04-07T00:54:02;10.18;;;4.18;;
21036;SDS011;10677;50.942;4.028;2023-04-07T00:56:28;9.85;;;4.43;;
21036;SDS011;10677;50.942;4.028;2023-04-07T00:58:54;9.15;;;4.00;;
21036;SDS011;10677;50.942;4.028;2023-04-07T01:04:11;7.93;;;3.63;;
21036;SDS011;10677;50.942;4.028;2023-04-07T01:07:04;11.00;;;4.40;;
21036;SDS011;10677;50.942;4.028;2023-04-07T01:10:15;11.25;;;4.50;;
21036;SDS011;10677;50.942;4.028;2023-04-07T01:14:59;9.13;;;3.60;;
21036;SDS011;10677;50.942;4.028;2023-04-07T01:17:33;9.45;;;3.70;;
21036;SDS011;10677;50.942;4.028;2023-04-07T01:20:02;8.63;;;3.35;;
21036;SDS011;10677;50.942;4.028;2023-04-07T01:22:32;6.22;;;3.60;;
21036;SDS011;10677;50.942;4.028;2023-04-07T01:27:53;7.72;;;3.80;;
21036;SDS011;10677;50.942;4.028;2023-04-07T01:30:34;11.50;;;3.75;;
21036;SDS011;10677;50.942;4.028;2023-04-07T01:33:03;9.45;;;3.30;;
21036;SDS011;10677;50.942;4.028;2023-04-07T01:35:31;8.45;;;3.30;;
21036;SDS011;10677;50.942;4.028;2023-04-07T01:38:00;12.30;;;3.65;;
21036;SDS011;10677;50.942;4.028;2023-04-07T01:40:27;8.85;;;3.13;;
21036;SDS011;10677;50.942;4.028;2023-04-07T01:42:55;7.72;;;3.53;;
21036;SDS011;10677;50.942;4.028;2023-04-07T01:45:21;7.38;;;3.17;;
21036;SDS011;10677;50.942;4.028;2023-04-07T01:47:48;6.75;;;3.30;;
21036;SDS011;10677;50.942;4.028;2023-04-07T01:50:15;9.25;;;3.03;;
21036;SDS011;10677;50.942;4.028;2023-04-07T01:52:41;7.00;;;3.63;;
21036;SDS011;10677;50.942;4.028;2023-04-07T01:55:07;7.38;;;3.40;;
21036;SDS011;10677;50.942;4.028;2023-04-07T01:57:33;8.25;;;3.90;;
21036;SDS011;10677;50.942;4.028;2023-04-07T01:59:59;13.07;;;3.85;;
21036;SDS011;10677;50.942;4.028;2023-04-07T02:02:25;8.45;;;3.65;;
21036;SDS011;10677;50.942;4.028;2023-04-07T02:04:53;12.63;;;4.05;;
21036;SDS011;10677;50.942;4.028;2023-04-07T02:07:42;9.15;;;4.07;;
21036;SDS011;10677;50.942;4.028;2023-04-07T02:10:10;7.90;;;3.83;;
21036;SDS011;10677;50.942;4.028;2023-04-07T02:12:37;12.15;;;4.07;;
21036;SDS011;10677;50.942;4.028;2023-04-07T02:15:04;12.68;;;4.97;;
21036;SDS011;10677;50.942;4.028;2023-04-07T02:17:33;9.77;;;4.40;;
21036;SDS011;10677;50.942;4.028;2023-04-07T02:20:01;11.30;;;4.00;;
21036;SDS011;10677;50.942;4.028;2023-04-07T02:22:30;8.20;;;4.40;;
21036;SDS011;10677;50.942;4.028;2023-04-07T02:24:57;10.63;;;4.78;;
21036;SDS011;10677;50.942;4.028;2023-04-07T02:27:22;11.10;;;5.00;;
21036;SDS011;10677;50.942;4.028;2023-04-07T02:29:48;10.10;;;5.05;;
21036;SDS011;10677;50.942;4.028;2023-04-07T02:32:14;8.70;;;4.97;;
21036;SDS011;10677;50.942;4.028;2023-04-07T02:34:41;13.70;;;5.05;;
21036;SDS011;10677;50.942;4.028;2023-04-07T02:37:07;12.95;;;5.43;;
21036;SDS011;10677;50.942;4.028;2023-04-07T02:39:33;10.48;;;5.25;;
21036;SDS011;10677;50.942;4.028;2023-04-07T02:41:58;15.23;;;6.40;;
21036;SDS011;10677;50.942;4.028;2023-04-07T02:44:24;16.42;;;6.78;;
21036;SDS011;10677;50.942;4.028;2023-04-07T02:46:50;12.35;;;6.40;;
21036;SDS011;10677;50.942;4.028;2023-04-07T02:49:16;11.95;;;6.90;;
21036;SDS011;10677;50.942;4.028;2023-04-07T02:51:41;15.27;;;6.97;;
21036;SDS011;10677;50.942;4.028;2023-04-07T02:54:07;15.40;;;6.90;;
21036;SDS011;10677;50.942;4.028;2023-04-07T02:56:32;16.38;;;7.00;;
21036;SDS011;10677;50.942;4.028;2023-04-07T02:58:58;19.00;;;7.93;;
21036;SDS011;10677;50.942;4.028;2023-04-07T03:01:23;17.45;;;7.82;;
21036;SDS011;10677;50.942;4.028;2023-04-07T03:03:49;15.18;;;8.00;;
21036;SDS011;10677;50.942;4.028;2023-04-07T03:06:15;14.35;;;7.65;;
21036;SDS011;10677;50.942;4.028;2023-04-07T03:08:40;14.50;;;8.23;;
21036;SDS011;10677;50.942;4.028;2023-04-07T03:11:06;19.58;;;8.15;;
21036;SDS011;10677;50.942;4.028;2023-04-07T03:13:32;16.75;;;8.90;;
21036;SDS011;10677;50.942;4.028;2023-04-07T03:15:57;15.32;;;9.48;;
21036;SDS011;10677;50.942;4.028;2023-04-07T03:18:23;18.92;;;10.27;;
21036;SDS011;10677;50.942;4.028;2023-04-07T03:20:49;18.05;;;9.90;;
21036;SDS011;10677;50.942;4.028;2023-04-07T03:23:16;18.17;;;10.07;;
21036;SDS011;10677;50.942;4.028;2023-04-07T03:25:43;19.88;;;10.35;;
21036;SDS011;10677;50.942;4.028;2023-04-07T03:28:08;18.05;;;10.63;;
21036;SDS011;10677;50.942;4.028;2023-04-07T03:30:34;23.45;;;11.35;;
21036;SDS011;10677;50.942;4.028;2023-04-07T03:33:01;17.75;;;11.00;;
21036;SDS011;10677;50.942;4.028;2023-04-07T03:35:26;19.98;;;12.18;;
21036;SDS011;10677;50.942;4.028;2023-04-07T03:37:52;22.77;;;11.32;;
21036;SDS011;10677;50.942;4.028;2023-04-07T03:40:18;19.60;;;12.25;;
21036;SDS011;10677;50.942;4.028;2023-04-07T03:42:44;21.50;;;12.25;;
21036;SDS011;10677;50.942;4.028;2023-04-07T03:45:10;20.90;;;12.68;;
21036;SDS011;10677;50.942;4.028;2023-04-07T03:47:36;27.45;;;13.20;;
21036;SDS011;10677;50.942;4.028;2023-04-07T03:50:02;22.25;;;12.65;;
21036;SDS011;10677;50.942;4.028;2023-04-07T03:52:27;25.75;;;13.25;;
21036;SDS011;10677;50.942;4.028;2023-04-07T03:54:53;25.70;;;14.38;;
21036;SDS011;10677;50.942;4.028;2023-04-07T03:57:19;27.00;;;13.23;;
21036;SDS011;10677;50.942;4.028;2023-04-07T03:59:44;28.15;;;15.05;;
21036;SDS011;10677;50.942;4.028;2023-04-07T04:02:11;25.92;;;14.43;;
21036;SDS011;10677;50.942;4.028;2023-04-07T04:04:37;28.40;;;14.82;;
21036;SDS011;10677;50.942;4.028;2023-04-07T04:07:03;32.10;;;14.55;;
21036;SDS011;10677;50.942;4.028;2023-04-07T04:09:29;30.85;;;15.75;;
21036;SDS011;10677;50.942;4.028;2023-04-07T04:11:55;28.48;;;16.27;;
21036;SDS011;10677;50.942;4.028;2023-04-07T04:14:21;27.58;;;15.20;;
21036;SDS011;10677;50.942;4.028;2023-04-07T04:16:46;29.98;;;16.05;;
21036;SDS011;10677;50.942;4.028;2023-04-07T04:19:12;30.08;;;15.93;;
21036;SDS011;10677;50.942;4.028;2023-04-07T04:21:37;28.77;;;15.70;;
21036;SDS011;10677;50.942;4.028;2023-04-07T04:24:03;28.35;;;16.45;;
21036;SDS011;10677;50.942;4.028;2023-04-07T04:26:29;29.98;;;16.70;;
21036;SDS011;10677;50.942;4.028;2023-04-07T04:28:54;32.15;;;16.00;;
21036;SDS011;10677;50.942;4.028;2023-04-07T04:31:20;28.33;;;15.45;;
21036;SDS011;10677;50.942;4.028;2023-04-07T04:33:46;30.42;;;16.88;;
21036;SDS011;10677;50.942;4.028;2023-04-07T04:36:11;35.70;;;17.83;;
21036;SDS011;10677;50.942;4.028;2023-04-07T04:38:37;31.08;;;17.33;;
21036;SDS011;10677;50.942;4.028;2023-04-07T04:41:03;34.08;;;16.50;;
21036;SDS011;10677;50.942;4.028;2023-04-07T04:43:28;32.40;;;18.05;;
21036;SDS011;10677;50.942;4.028;2023-04-07T04:45:55;36.13;;;17.92;;
21036;SDS011;10677;50.942;4.028;2023-04-07T04:48:20;31.38;;;18.40;;
21036;SDS011;10677;50.942;4.028;2023-04-07T04:50:46;32.67;;;16.55;;
21036;SDS011;10677;50.942;4.028;2023-04-07T04:53:12;36.65;;;18.10;;
21036;SDS011;10677;50.942;4.028;2023-04-07T04:55:37;32.22;;;17.63;;
21036;SDS011;10677;50.942;4.028;2023-04-07T04:58:06;34.85;;;17.67;;
21036;SDS011;10677;50.942;4.028;2023-04-07T05:00:32;30.77;;;18.27;;
21036;SDS011;10677;50.942;4.028;2023-04-07T05:02:58;36.63;;;18.10;;
21036;SDS011;10677;50.942;4.028;2023-04-07T05:05:23;33.53;;;18.55;;
21036;SDS011;10677;50.942;4.028;2023-04-07T05:07:49;32.70;;;18.88;;
21036;SDS011;10677;50.942;4.028;2023-04-07T05:10:14;33.58;;;18.67;;
21036;SDS011;10677;50.942;4.028;2023-04-07T05:12:40;35.80;;;19.13;;
21036;SDS011;10677;50.942;4.028;2023-04-07T05:15:06;34.40;;;18.80;;
21036;SDS011;10677;50.942;4.028;2023-04-07T05:17:32;37.00;;;19.02;;
21036;SDS011;10677;50.942;4.028;2023-04-07T05:19:58;36.65;;;19.77;;
21036;SDS011;10677;50.942;4.028;2023-04-07T05:22:23;40.53;;;21.42;;
21036;SDS011;10677;50.942;4.028;2023-04-07T05:24:52;36.95;;;20.35;;
21036;SDS011;10677;50.942;4.028;2023-04-07T05:27:17;38.88;;;19.88;;
21036;SDS011;10677;50.942;4.028;2023-04-07T05:29:43;44.40;;;21.00;;
21036;SDS011;10677;50.942;4.028;2023-04-07T05:32:08;44.85;;;22.77;;
21036;SDS011;10677;50.942;4.028;2023-04-07T05:34:34;43.60;;;22.67;;
21036;SDS011;10677;50.942;4.028;2023-04-07T05:37:00;42.50;;;21.77;;
21036;SDS011;10677;50.942;4.028;2023-04-07T05:39:26;40.95;;;21.95;;
21036;SDS011;10677;50.942;4.028;2023-04-07T05:41:51;38.67;;;21.65;;
21036;SDS011;10677;50.942;4.028;2023-04-07T05:44:17;44.60;;;21.65;;
21036;SDS011;10677;50.942;4.028;2023-04-07T05:46:42;39.90;;;21.85;;
21036;SDS011;10677;50.942;4.028;2023-04-07T05:49:08;41.20;;;22.98;;
21036;SDS011;10677;50.942;4.028;2023-04-07T05:51:34;40.97;;;22.30;;
21036;SDS011;10677;50.942;4.028;2023-04-07T05:54:00;41.95;;;21.48;;
21036;SDS011;10677;50.942;4.028;2023-04-07T05:56:29;42.20;;;21.35;;
21036;SDS011;10677;50.942;4.028;2023-04-07T05:58:55;37.05;;;20.77;;
21036;SDS011;10677;50.942;4.028;2023-04-07T06:01:20;42.35;;;21.52;;
21036;SDS011;10677;50.942;4.028;2023-04-07T06:03:46;43.65;;;21.15;;
21036;SDS011;10677;50.942;4.028;2023-04-07T06:06:12;41.40;;;21.52;;
21036;SDS011;10677;50.942;4.028;2023-04-07T06:08:38;40.35;;;22.02;;
21036;SDS011;10677;50.942;4.028;2023-04-07T06:11:04;46.85;;;22.65;;
21036;SDS011;10677;50.942;4.028;2023-04-07T06:13:30;50.67;;;24.88;;
21036;SDS011;10677;50.942;4.028;2023-04-07T06:15:55;49.85;;;23.45;;
21036;SDS011;10677;50.942;4.028;2023-04-07T06:18:21;55.63;;;23.95;;
21036;SDS011;10677;50.942;4.028;2023-04-07T06:20:47;57.38;;;26.00;;
21036;SDS011;10677;50.942;4.028;2023-04-07T06:23:12;60.00;;;25.63;;
21036;SDS011;10677;50.942;4.028;2023-04-07T06:25:38;58.25;;;25.20;;
21036;SDS011;10677;50.942;4.028;2023-04-07T06:28:04;60.08;;;24.58;;
21036;SDS011;10677;50.942;4.028;2023-04-07T06:30:30;56.92;;;24.20;;
21036;SDS011;10677;50.942;4.028;2023-04-07T06:32:56;58.25;;;23.05;;
21036;SDS011;10677;50.942;4.028;2023-04-07T06:35:21;50.08;;;22.65;;
21036;SDS011;10677;50.942;4.028;2023-04-07T06:37:47;45.72;;;21.90;;
21036;SDS011;10677;50.942;4.028;2023-04-07T06:40:12;48.50;;;22.30;;
21036;SDS011;10677;50.942;4.028;2023-04-07T06:42:38;46.70;;;22.15;;
21036;SDS011;10677;50.942;4.028;2023-04-07T06:45:04;48.45;;;20.92;;
21036;SDS011;10677;50.942;4.028;2023-04-07T06:47:30;49.17;;;22.02;;
21036;SDS011;10677;50.942;4.028;2023-04-07T06:49:56;48.50;;;22.17;;
21036;SDS011;10677;50.942;4.028;2023-04-07T06:52:21;45.20;;;21.02;;
21036;SDS011;10677;50.942;4.028;2023-04-07T06:54:47;43.17;;;20.35;;
21036;SDS011;10677;50.942;4.028;2023-04-07T06:57:13;43.15;;;19.90;;
21036;SDS011;10677;50.942;4.028;2023-04-07T06:59:38;42.17;;;19.13;;
21036;SDS011;10677;50.942;4.028;2023-04-07T07:02:04;33.92;;;15.73;;
21036;SDS011;10677;50.942;4.028;2023-04-07T07:04:31;34.97;;;15.23;;
21036;SDS011;10677;50.942;4.028;2023-04-07T07:06:58;29.92;;;16.73;;
21036;SDS011;10677;50.942;4.028;2023-04-07T07:09:23;32.55;;;14.95;;
21036;SDS011;10677;50.942;4.028;2023-04-07T07:11:51;31.83;;;15.57;;
21036;SDS011;10677;50.942;4.028;2023-04-07T07:14:17;27.77;;;14.57;;
21036;SDS011;10677;50.942;4.028;2023-04-07T07:16:42;32.70;;;15.38;;
21036;SDS011;10677;50.942;4.028;2023-04-07T07:19:08;30.77;;;15.50;;
21036;SDS011;10677;50.942;4.028;2023-04-07T07:21:34;32.97;;;15.02;;
21036;SDS011;10677;50.942;4.028;2023-04-07T07:24:00;34.95;;;15.55;;
21036;SDS011;10677;50.942;4.028;2023-04-07T07:26:25;35.53;;;15.65;;
21036;SDS011;10677;50.942;4.028;2023-04-07T07:28:51;30.08;;;15.30;;
21036;SDS011;10677;50.942;4.028;2023-04-07T07:31:17;32.38;;;15.40;;
21036;SDS011;10677;50.942;4.028;2023-04-07T07:33:43;28.77;;;14.82;;
21036;SDS011;10677;50.942;4.028;2023-04-07T07:36:10;33.70;;;15.30;;
21036;SDS011;10677;50.942;4.028;2023-04-07T07:38:36;32.03;;;14.02;;
21036;SDS011;10677;50.942;4.028;2023-04-07T07:41:02;30.92;;;14.45;;
21036;SDS011;10677;50.942;4.028;2023-04-07T07:43:28;25.40;;;14.07;;
21036;SDS011;10677;50.942;4.028;2023-04-07T07:45:54;25.77;;;14.07;;
21036;SDS011;10677;50.942;4.028;2023-04-07T07:48:20;26.25;;;13.63;;
21036;SDS011;10677;50.942;4.028;2023-04-07T07:50:45;22.80;;;13.00;;
21036;SDS011;10677;50.942;4.028;2023-04-07T07:53:12;23.42;;;12.43;;
21036;SDS011;10677;50.942;4.028;2023-04-07T07:55:38;24.67;;;12.55;;
21036;SDS011;10677;50.942;4.028;2023-04-07T07:58:03;24.30;;;13.45;;
21036;SDS011;10677;50.942;4.028;2023-04-07T08:00:29;30.75;;;13.60;;
21036;SDS011;10677;50.942;4.028;2023-04-07T08:02:55;26.73;;;12.70;;
21036;SDS011;10677;50.942;4.028;2023-04-07T08:05:20;24.48;;;13.23;;
21036;SDS011;10677;50.942;4.028;2023-04-07T08:07:46;27.83;;;14.93;;
21036;SDS011;10677;50.942;4.028;2023-04-07T08:10:13;31.90;;;14.63;;
21036;SDS011;10677;50.942;4.028;2023-04-07T08:12:39;24.88;;;13.23;;
21036;SDS011;10677;50.942;4.028;2023-04-07T08:15:05;23.88;;;12.32;;
21036;SDS011;10677;50.942;4.028;2023-04-07T08:17:34;23.23;;;12.30;;
21036;SDS011;10677;50.942;4.028;2023-04-07T08:20:02;23.38;;;12.57;;
21036;SDS011;10677;50.942;4.028;2023-04-07T08:22:29;21.95;;;12.35;;
21036;SDS011;10677;50.942;4.028;2023-04-07T08:24:54;22.27;;;10.90;;
21036;SDS011;10677;50.942;4.028;2023-04-07T08:27:20;16.13;;;9.98;;
21036;SDS011;10677;50.942;4.028;2023-04-07T08:29:57;17.27;;;10.65;;
21036;SDS011;10677;50.942;4.028;2023-04-07T08:32:33;16.00;;;10.43;;
21036;SDS011;10677;50.942;4.028;2023-04-07T08:35:02;21.98;;;10.10;;
21036;SDS011;10677;50.942;4.028;2023-04-07T08:37:28;16.17;;;9.48;;
21036;SDS011;10677;50.942;4.028;2023-04-07T08:39:55;18.05;;;9.57;;
21036;SDS011;10677;50.942;4.028;2023-04-07T08:42:21;18.67;;;9.60;;
21036;SDS011;10677;50.942;4.028;2023-04-07T08:44:51;15.48;;;9.57;;
21036;SDS011;10677;50.942;4.028;2023-04-07T08:47:19;17.73;;;9.20;;
21036;SDS011;10677;50.942;4.028;2023-04-07T08:49:47;15.93;;;9.10;;
21036;SDS011;10677;50.942;4.028;2023-04-07T08:52:16;17.98;;;8.50;;
21036;SDS011;10677;50.942;4.028;2023-04-07T08:54:47;15.38;;;8.18;;
21036;SDS011;10677;50.942;4.028;2023-04-07T08:57:14;20.27;;;7.32;;
21036;SDS011;10677;50.942;4.028;2023-04-07T08:59:41;21.88;;;7.47;;
21036;SDS011;10677;50.942;4.028;2023-04-07T09:02:09;12.90;;;6.85;;
21036;SDS011;10677;50.942;4.028;2023-04-07T09:04:35;12.85;;;7.03;;
21036;SDS011;10677;50.942;4.028;2023-04-07T09:07:01;10.93;;;6.47;;
21036;SDS011;10677;50.942;4.028;2023-04-07T09:09:27;9.70;;;5.97;;
21036;SDS011;10677;50.942;4.028;2023-04-07T09:11:53;13.50;;;6.15;;
21036;SDS011;10677;50.942;4.028;2023-04-07T09:14:19;10.38;;;5.85;;
21036;SDS011;10677;50.942;4.028;2023-04-07T09:16:46;9.27;;;5.38;;
21036;SDS011;10677;50.942;4.028;2023-04-07T09:19:11;9.73;;;5.22;;
21036;SDS011;10677;50.942;4.028;2023-04-07T09:21:50;11.13;;;5.30;;
21036;SDS011;10677;50.942;4.028;2023-04-07T09:24:20;8.65;;;4.70;;
21036;SDS011;10677;50.942;4.028;2023-04-07T09:26:47;11.90;;;5.65;;
21036;SDS011;10677;50.942;4.028;2023-04-07T09:29:17;9.23;;;5.03;;
21036;SDS011;10677;50.942;4.028;2023-04-07T09:31:47;11.68;;;4.95;;
21036;SDS011;10677;50.942;4.028;2023-04-07T09:34:28;10.13;;;4.95;;
21036;SDS011;10677;50.942;4.028;2023-04-07T09:36:56;13.73;;;5.60;;
21036;SDS011;10677;50.942;4.028;2023-04-07T09:39:22;14.05;;;6.50;;
21036;SDS011;10677;50.942;4.028;2023-04-07T09:41:48;13.63;;;6.40;;
21036;SDS011;10677;50.942;4.028;2023-04-07T09:44:14;13.50;;;6.18;;
21036;SDS011;10677;50.942;4.028;2023-04-07T09:49:18;14.48;;;6.30;;
21036;SDS011;10677;50.942;4.028;2023-04-07T09:52:00;15.73;;;6.57;;
21036;SDS011;10677;50.942;4.028;2023-04-07T09:57:01;17.63;;;8.85;;
21036;SDS011;10677;50.942;4.028;2023-04-07T09:59:31;19.67;;;8.80;;
21036;SDS011;10677;50.942;4.028;2023-04-07T10:01:58;22.60;;;9.15;;
21036;SDS011;10677;50.942;4.028;2023-04-07T10:04:24;21.20;;;8.07;;
21036;SDS011;10677;50.942;4.028;2023-04-07T10:06:53;19.52;;;8.57;;
21036;SDS011;10677;50.942;4.028;2023-04-07T10:09:20;20.42;;;8.75;;
21036;SDS011;10677;50.942;4.028;2023-04-07T10:11:48;19.58;;;8.75;;
21036;SDS011;10677;50.942;4.028;2023-04-07T10:14:15;18.08;;;7.32;;
21036;SDS011;10677;50.942;4.028;2023-04-07T10:16:42;18.13;;;8.32;;
21036;SDS011;10677;50.942;4.028;2023-04-07T10:19:08;15.38;;;6.70;;
21036;SDS011;10677;50.942;4.028;2023-04-07T10:21:35;17.50;;;6.50;;
21036;SDS011;10677;50.942;4.028;2023-04-07T10:26:33;9.40;;;3.90;;
21036;SDS011;10677;50.942;4.028;2023-04-07T10:29:05;12.02;;;3.03;;
21036;SDS011;10677;50.942;4.028;2023-04-07T10:31:36;10.30;;;2.50;;
21036;SDS011;10677;50.942;4.028;2023-04-07T10:34:02;9.57;;;2.75;;
21036;SDS011;10677;50.942;4.028;2023-04-07T10:36:29;8.70;;;3.20;;
21036;SDS011;10677;50.942;4.028;2023-04-07T10:41:34;7.18;;;2.47;;
21036;SDS011;10677;50.942;4.028;2023-04-07T10:44:01;8.80;;;2.55;;
21036;SDS011;10677;50.942;4.028;2023-04-07T10:49:16;7.63;;;2.72;;
21036;SDS011;10677;50.942;4.028;2023-04-07T10:51:42;10.10;;;2.45;;
21036;SDS011;10677;50.942;4.028;2023-04-07T10:54:18;6.80;;;1.88;;
21036;SDS011;10677;50.942;4.028;2023-04-07T10:59:27;7.57;;;1.55;;
21036;SDS011;10677;50.942;4.028;2023-04-07T11:04:39;9.10;;;1.88;;
21036;SDS011;10677;50.942;4.028;2023-04-07T11:07:06;4.38;;;1.35;;
21036;SDS011;10677;50.942;4.028;2023-04-07T11:09:32;6.15;;;1.45;;
21036;SDS011;10677;50.942;4.028;2023-04-07T11:11:58;6.60;;;1.42;;
21036;SDS011;10677;50.942;4.028;2023-04-07T11:14:25;4.65;;;1.50;;
21036;SDS011;10677;50.942;4.028;2023-04-07T11:16:51;5.80;;;1.70;;
21036;SDS011;10677;50.942;4.028;2023-04-07T11:19:17;6.05;;;1.65;;
21036;SDS011;10677;50.942;4.028;2023-04-07T11:21:43;6.10;;;1.77;;
21036;SDS011;10677;50.942;4.028;2023-04-07T11:24:09;13.10;;;2.53;;
21036;SDS011;10677;50.942;4.028;2023-04-07T11:26:38;4.30;;;2.08;;
21036;SDS011;10677;50.942;4.028;2023-04-07T11:29:05;5.13;;;1.50;;
21036;SDS011;10677;50.942;4.028;2023-04-07T11:31:32;3.90;;;1.13;;
21036;SDS011;10677;50.942;4.028;2023-04-07T11:33:59;8.00;;;2.45;;
21036;SDS011;10677;50.942;4.028;2023-04-07T11:36:37;35.35;;;9.85;;
21036;SDS011;10677;50.942;4.028;2023-04-07T11:39:04;34.05;;;9.23;;
21036;SDS011;10677;50.942;4.028;2023-04-07T11:41:30;33.38;;;9.30;;
21036;SDS011;10677;50.942;4.028;2023-04-07T11:44:07;36.25;;;8.85;;
21036;SDS011;10677;50.942;4.028;2023-04-07T11:46:33;24.40;;;6.68;;
21036;SDS011;10677;50.942;4.028;2023-04-07T11:49:10;31.23;;;7.60;;
21036;SDS011;10677;50.942;4.028;2023-04-07T11:51:37;29.92;;;8.15;;
21036;SDS011;10677;50.942;4.028;2023-04-07T11:54:03;41.85;;;9.77;;
21036;SDS011;10677;50.942;4.028;2023-04-07T11:56:29;37.95;;;9.32;;
21036;SDS011;10677;50.942;4.028;2023-04-07T11:59:17;39.85;;;10.43;;
21036;SDS011;10677;50.942;4.028;2023-04-07T12:01:47;50.00;;;10.30;;
21036;SDS011;10677;50.942;4.028;2023-04-07T12:04:14;30.08;;;8.05;;
21036;SDS011;10677;50.942;4.028;2023-04-07T12:06:41;31.75;;;7.22;;
21036;SDS011;10677;50.942;4.028;2023-04-07T12:09:08;29.27;;;6.30;;
21036;SDS011;10677;50.942;4.028;2023-04-07T12:11:50;14.02;;;3.70;;
21036;SDS011;10677;50.942;4.028;2023-04-07T12:14:16;12.23;;;3.60;;
21036;SDS011;10677;50.942;4.028;2023-04-07T12:16:42;16.27;;;3.63;;
21036;SDS011;10677;50.942;4.028;2023-04-07T12:19:07;11.90;;;2.83;;
21036;SDS011;10677;50.942;4.028;2023-04-07T12:21:33;9.90;;;2.10;;
21036;SDS011;10677;50.942;4.028;2023-04-07T12:23:58;7.93;;;2.17;;
21036;SDS011;10677;50.942;4.028;2023-04-07T12:26:24;8.75;;;2.22;;
21036;SDS011;10677;50.942;4.028;2023-04-07T12:28:50;8.00;;;2.47;;
21036;SDS011;10677;50.942;4.028;2023-04-07T12:31:16;5.20;;;1.85;;
21036;SDS011;10677;50.942;4.028;2023-04-07T12:33:41;6.57;;;2.05;;
21036;SDS011;10677;50.942;4.028;2023-04-07T12:36:07;4.03;;;1.80;;
21036;SDS011;10677;50.942;4.028;2023-04-07T12:38:33;4.05;;;1.77;;
21036;SDS011;10677;50.942;4.028;2023-04-07T12:40:58;10.35;;;2.20;;
21036;SDS011;10677;50.942;4.028;2023-04-07T12:43:28;4.68;;;1.52;;
21036;SDS011;10677;50.942;4.028;2023-04-07T12:45:54;5.65;;;1.92;;
21036;SDS011;10677;50.942;4.028;2023-04-07T12:48:20;8.93;;;1.80;;
21036;SDS011;10677;50.942;4.028;2023-04-07T12:50:45;6.95;;;1.65;;
21036;SDS011;10677;50.942;4.028;2023-04-07T12:53:11;8.02;;;1.90;;
21036;SDS011;10677;50.942;4.028;2023-04-07T12:55:37;7.25;;;1.80;;
21036;SDS011;10677;50.942;4.028;2023-04-07T12:58:02;7.65;;;1.77;;
21036;SDS011;10677;50.942;4.028;2023-04-07T13:00:28;5.47;;;2.58;;
21036;SDS011;10677;50.942;4.028;2023-04-07T13:02:54;10.38;;;3.35;;
21036;SDS011;10677;50.942;4.028;2023-04-07T13:05:20;11.15;;;3.42;;
21036;SDS011;10677;50.942;4.028;2023-04-07T13:07:46;6.85;;;2.17;;
21036;SDS011;10677;50.942;4.028;2023-04-07T13:10:11;8.32;;;2.00;;
21036;SDS011;10677;50.942;4.028;2023-04-07T13:12:37;9.13;;;2.00;;
21036;SDS011;10677;50.942;4.028;2023-04-07T13:15:05;8.27;;;2.08;;
21036;SDS011;10677;50.942;4.028;2023-04-07T13:17:31;10.75;;;3.05;;
21036;SDS011;10677;50.942;4.028;2023-04-07T13:19:57;10.70;;;2.90;;
21036;SDS011;10677;50.942;4.028;2023-04-07T13:22:22;13.77;;;4.13;;
21036;SDS011;10677;50.942;4.028;2023-04-07T13:24:49;14.32;;;3.80;;
21036;SDS011;10677;50.942;4.028;2023-04-07T13:27:14;12.43;;;3.97;;
21036;SDS011;10677;50.942;4.028;2023-04-07T13:29:40;5.45;;;3.30;;
21036;SDS011;10677;50.942;4.028;2023-04-07T13:32:09;10.90;;;3.58;;
21036;SDS011;10677;50.942;4.028;2023-04-07T13:34:39;7.85;;;3.28;;
21036;SDS011;10677;50.942;4.028;2023-04-07T13:37:05;9.55;;;3.72;;
21036;SDS011;10677;50.942;4.028;2023-04-07T13:39:31;7.95;;;2.40;;
21036;SDS011;10677;50.942;4.028;2023-04-07T13:41:58;8.05;;;2.95;;
21036;SDS011;10677;50.942;4.028;2023-04-07T13:44:25;11.88;;;2.42;;
21036;SDS011;10677;50.942;4.028;2023-04-07T13:46:51;9.10;;;2.80;;
21036;SDS011;10677;50.942;4.028;2023-04-07T13:49:18;6.72;;;2.10;;
21036;SDS011;10677;50.942;4.028;2023-04-07T13:51:43;7.25;;;1.83;;
21036;SDS011;10677;50.942;4.028;2023-04-07T13:54:09;6.65;;;1.65;;
21036;SDS011;10677;50.942;4.028;2023-04-07T13:56:35;2.47;;;1.02;;
21036;SDS011;10677;50.942;4.028;2023-04-07T13:59:04;4.60;;;1.25;;
21036;SDS011;10677;50.942;4.028;2023-04-07T14:01:30;5.57;;;1.08;;
21036;SDS011;10677;50.942;4.028;2023-04-07T14:03:57;7.00;;;1.90;;
21036;SDS011;10677;50.942;4.028;2023-04-07T14:06:23;6.80;;;1.30;;
21036;SDS011;10677;50.942;4.028;2023-04-07T14:08:49;5.30;;;1.38;;
21036;SDS011;10677;50.942;4.028;2023-04-07T14:11:16;5.85;;;1.20;;
21036;SDS011;10677;50.942;4.028;2023-04-07T14:13:46;7.53;;;1.38;;
21036;SDS011;10677;50.942;4.028;2023-04-07T14:16:11;10.27;;;1.50;;
21036;SDS011;10677;50.942;4.028;2023-04-07T14:18:37;3.70;;;1.23;;
21036;SDS011;10677;50.942;4.028;2023-04-07T14:21:03;4.55;;;1.13;;
21036;SDS011;10677;50.942;4.028;2023-04-07T14:23:29;7.18;;;1.75;;
21036;SDS011;10677;50.942;4.028;2023-04-07T14:25:56;5.40;;;1.20;;
21036;SDS011;10677;50.942;4.028;2023-04-07T14:28:22;8.63;;;1.40;;
21036;SDS011;10677;50.942;4.028;2023-04-07T14:30:48;4.78;;;1.20;;
21036;SDS011;10677;50.942;4.028;2023-04-07T14:33:13;2.58;;;1.00;;
21036;SDS011;10677;50.942;4.028;2023-04-07T14:35:41;8.00;;;1.25;;
21036;SDS011;10677;50.942;4.028;2023-04-07T14:38:07;7.82;;;1.60;;
21036;SDS011;10677;50.942;4.028;2023-04-07T14:40:35;5.57;;;1.25;;
21036;SDS011;10677;50.942;4.028;2023-04-07T14:43:01;4.72;;;1.20;;
21036;SDS011;10677;50.942;4.028;2023-04-07T14:45:28;3.80;;;0.95;;
21036;SDS011;10677;50.942;4.028;2023-04-07T14:47:53;4.40;;;1.40;;
21036;SDS011;10677;50.942;4.028;2023-04-07T14:50:19;6.57;;;1.90;;
21036;SDS011;10677;50.942;4.028;2023-04-07T14:52:45;3.75;;;1.27;;
21036;SDS011;10677;50.942;4.028;2023-04-07T14:55:11;4.05;;;1.23;;
21036;SDS011;10677;50.942;4.028;2023-04-07T14:57:37;6.03;;;1.40;;